sensor_id;sensor_type;location;lat;lon;timestamp;P1;durP1;ratioP1;P2;durP2;ratioP2
3253;SDS011;1639;42.804;23.342;2022-12-07T00:00:27;6.90;;;2.23;;
3253;SDS011;1639;42.804;23.342;2022-12-07T00:02:52;9.27;;;3.90;;
3253;SDS011;1639;42.804;23.342;2022-12-07T00:05:18;11.57;;;3.10;;
3253;SDS011;1639;42.804;23.342;2022-12-07T00:07:43;5.20;;;2.00;;
3253;SDS011;1639;42.804;23.342;2022-12-07T00:10:08;20.80;;;2.90;;
3253;SDS011;1639;42.804;23.342;2022-12-07T00:12:34;5.07;;;1.50;;
3253;SDS011;1639;42.804;23.342;2022-12-07T00:14:59;5.83;;;1.50;;
3253;SDS011;1639;42.804;23.342;2022-12-07T00:17:25;6.60;;;2.63;;
3253;SDS011;1639;42.804;23.342;2022-12-07T00:19:50;8.60;;;1.83;;
3253;SDS011;1639;42.804;23.342;2022-12-07T00:22:15;6.90;;;1.77;;
3253;SDS011;1639;42.804;23.342;2022-12-07T00:24:41;13.00;;;2.73;;
3253;SDS011;1639;42.804;23.342;2022-12-07T00:27:06;5.90;;;1.60;;
3253;SDS011;1639;42.804;23.342;2022-12-07T00:29:31;8.23;;;1.90;;
3253;SDS011;1639;42.804;23.342;2022-12-07T00:31:57;5.60;;;1.83;;
3253;SDS011;1639;42.804;23.342;2022-12-07T00:34:22;5.20;;;1.57;;
3253;SDS011;1639;42.804;23.342;2022-12-07T00:36:48;5.03;;;1.50;;
3253;SDS011;1639;42.804;23.342;2022-12-07T00:39:14;10.73;;;2.50;;
3253;SDS011;1639;42.804;23.342;2022-12-07T00:41:39;5.00;;;1.30;;
3253;SDS011;1639;42.804;23.342;2022-12-07T00:44:05;6.53;;;2.40;;
3253;SDS011;1639;42.804;23.342;2022-12-07T00:46:30;5.30;;;1.97;;
3253;SDS011;1639;42.804;23.342;2022-12-07T00:48:56;5.30;;;1.73;;
3253;SDS011;1639;42.804;23.342;2022-12-07T00:51:22;5.20;;;1.70;;
3253;SDS011;1639;42.804;23.342;2022-12-07T00:53:50;5.10;;;1.50;;
3253;SDS011;1639;42.804;23.342;2022-12-07T00:56:20;10.63;;;3.00;;
3253;SDS011;1639;42.804;23.342;2022-12-07T00:58:54;19.70;;;4.80;;
3253;SDS011;1639;42.804;23.342;2022-12-07T01:01:20;10.83;;;3.50;;
3253;SDS011;1639;42.804;23.342;2022-12-07T01:03:46;5.10;;;1.67;;
3253;SDS011;1639;42.804;23.342;2022-12-07T01:06:15;5.90;;;2.13;;
3253;SDS011;1639;42.804;23.342;2022-12-07T01:08:42;7.87;;;2.53;;
3253;SDS011;1639;42.804;23.342;2022-12-07T01:11:09;5.57;;;2.17;;
3253;SDS011;1639;42.804;23.342;2022-12-07T01:13:37;5.83;;;2.43;;
3253;SDS011;1639;42.804;23.342;2022-12-07T01:16:04;5.97;;;1.70;;
3253;SDS011;1639;42.804;23.342;2022-12-07T01:18:32;5.83;;;1.87;;
3253;SDS011;1639;42.804;23.342;2022-12-07T01:21:00;5.20;;;1.60;;
3253;SDS011;1639;42.804;23.342;2022-12-07T01:23:27;5.33;;;1.77;;
3253;SDS011;1639;42.804;23.342;2022-12-07T01:25:57;6.70;;;2.47;;
3253;SDS011;1639;42.804;23.342;2022-12-07T01:28:23;16.60;;;1.93;;
3253;SDS011;1639;42.804;23.342;2022-12-07T01:30:56;5.60;;;2.07;;
3253;SDS011;1639;42.804;23.342;2022-12-07T01:33:23;12.13;;;3.33;;
3253;SDS011;1639;42.804;23.342;2022-12-07T01:35:48;9.93;;;2.37;;
3253;SDS011;1639;42.804;23.342;2022-12-07T01:38:14;9.13;;;3.13;;
3253;SDS011;1639;42.804;23.342;2022-12-07T01:40:39;6.57;;;2.70;;
3253;SDS011;1639;42.804;23.342;2022-12-07T01:43:11;5.40;;;2.00;;
3253;SDS011;1639;42.804;23.342;2022-12-07T01:45:43;5.03;;;1.60;;
3253;SDS011;1639;42.804;23.342;2022-12-07T01:48:09;5.50;;;2.47;;
3253;SDS011;1639;42.804;23.342;2022-12-07T01:50:38;22.33;;;2.90;;
3253;SDS011;1639;42.804;23.342;2022-12-07T01:53:06;5.00;;;1.40;;
3253;SDS011;1639;42.804;23.342;2022-12-07T01:55:35;5.00;;;1.30;;
3253;SDS011;1639;42.804;23.342;2022-12-07T01:58:05;5.93;;;1.80;;
3253;SDS011;1639;42.804;23.342;2022-12-07T02:00:30;5.17;;;1.90;;
3253;SDS011;1639;42.804;23.342;2022-12-07T02:03:16;5.20;;;1.83;;
3253;SDS011;1639;42.804;23.342;2022-12-07T02:05:56;6.47;;;2.20;;
3253;SDS011;1639;42.804;23.342;2022-12-07T02:08:24;7.00;;;2.20;;
3253;SDS011;1639;42.804;23.342;2022-12-07T02:10:49;12.20;;;3.20;;
3253;SDS011;1639;42.804;23.342;2022-12-07T02:13:16;13.17;;;3.40;;
3253;SDS011;1639;42.804;23.342;2022-12-07T02:24:30;15.73;;;3.20;;
3253;SDS011;1639;42.804;23.342;2022-12-07T02:32:24;5.30;;;1.80;;
3253;SDS011;1639;42.804;23.342;2022-12-07T02:35:13;20.67;;;4.67;;
3253;SDS011;1639;42.804;23.342;2022-12-07T02:38:02;5.20;;;1.80;;
3253;SDS011;1639;42.804;23.342;2022-12-07T02:40:46;9.23;;;3.10;;
3253;SDS011;1639;42.804;23.342;2022-12-07T02:43:20;5.20;;;1.83;;
3253;SDS011;1639;42.804;23.342;2022-12-07T02:45:56;5.50;;;2.57;;
3253;SDS011;1639;42.804;23.342;2022-12-07T02:48:26;5.07;;;1.50;;
3253;SDS011;1639;42.804;23.342;2022-12-07T02:50:53;5.50;;;1.83;;
3253;SDS011;1639;42.804;23.342;2022-12-07T03:01:30;5.87;;;2.43;;
3253;SDS011;1639;42.804;23.342;2022-12-07T03:04:04;6.03;;;2.03;;
3253;SDS011;1639;42.804;23.342;2022-12-07T03:13:02;5.70;;;2.00;;
3253;SDS011;1639;42.804;23.342;2022-12-07T03:15:34;5.60;;;2.27;;
3253;SDS011;1639;42.804;23.342;2022-12-07T03:18:05;5.40;;;1.60;;
3253;SDS011;1639;42.804;23.342;2022-12-07T03:20:34;5.27;;;1.60;;
3253;SDS011;1639;42.804;23.342;2022-12-07T03:23:02;6.90;;;2.30;;
3253;SDS011;1639;42.804;23.342;2022-12-07T03:25:30;6.53;;;1.93;;
3253;SDS011;1639;42.804;23.342;2022-12-07T03:27:59;9.87;;;2.40;;
3253;SDS011;1639;42.804;23.342;2022-12-07T03:30:31;6.03;;;1.60;;
3253;SDS011;1639;42.804;23.342;2022-12-07T03:33:03;6.73;;;2.37;;
3253;SDS011;1639;42.804;23.342;2022-12-07T03:35:41;5.80;;;2.97;;
3253;SDS011;1639;42.804;23.342;2022-12-07T03:38:22;5.73;;;2.33;;
3253;SDS011;1639;42.804;23.342;2022-12-07T03:40:59;7.00;;;1.70;;
3253;SDS011;1639;42.804;23.342;2022-12-07T03:43:31;9.50;;;1.93;;
3253;SDS011;1639;42.804;23.342;2022-12-07T03:54:13;5.60;;;2.07;;
3253;SDS011;1639;42.804;23.342;2022-12-07T03:56:53;5.60;;;2.47;;
3253;SDS011;1639;42.804;23.342;2022-12-07T03:59:20;5.10;;;1.40;;
3253;SDS011;1639;42.804;23.342;2022-12-07T04:01:51;7.40;;;1.97;;
3253;SDS011;1639;42.804;23.342;2022-12-07T04:04:18;5.47;;;2.10;;
3253;SDS011;1639;42.804;23.342;2022-12-07T04:06:44;5.23;;;1.50;;
3253;SDS011;1639;42.804;23.342;2022-12-07T04:09:09;5.00;;;1.30;;
3253;SDS011;1639;42.804;23.342;2022-12-07T04:11:34;5.20;;;1.47;;
3253;SDS011;1639;42.804;23.342;2022-12-07T04:14:00;5.80;;;1.60;;
3253;SDS011;1639;42.804;23.342;2022-12-07T04:17:04;5.60;;;2.00;;
3253;SDS011;1639;42.804;23.342;2022-12-07T04:19:30;8.70;;;2.40;;
3253;SDS011;1639;42.804;23.342;2022-12-07T04:21:58;5.63;;;2.10;;
3253;SDS011;1639;42.804;23.342;2022-12-07T04:24:24;5.63;;;1.97;;
3253;SDS011;1639;42.804;23.342;2022-12-07T04:26:50;5.20;;;1.70;;
3253;SDS011;1639;42.804;23.342;2022-12-07T04:29:16;8.27;;;3.00;;
3253;SDS011;1639;42.804;23.342;2022-12-07T04:31:42;5.10;;;1.50;;
3253;SDS011;1639;42.804;23.342;2022-12-07T04:34:07;6.27;;;2.63;;
3253;SDS011;1639;42.804;23.342;2022-12-07T04:36:33;5.50;;;1.97;;
3253;SDS011;1639;42.804;23.342;2022-12-07T04:38:58;5.73;;;2.60;;
3253;SDS011;1639;42.804;23.342;2022-12-07T04:41:24;7.87;;;3.50;;
3253;SDS011;1639;42.804;23.342;2022-12-07T04:44:02;5.40;;;2.17;;
3253;SDS011;1639;42.804;23.342;2022-12-07T04:46:29;5.93;;;3.27;;
3253;SDS011;1639;42.804;23.342;2022-12-07T04:48:56;5.20;;;1.40;;
3253;SDS011;1639;42.804;23.342;2022-12-07T04:51:23;8.80;;;2.90;;
3253;SDS011;1639;42.804;23.342;2022-12-07T04:53:50;5.70;;;2.13;;
3253;SDS011;1639;42.804;23.342;2022-12-07T04:56:16;5.60;;;1.83;;
3253;SDS011;1639;42.804;23.342;2022-12-07T04:58:43;7.40;;;2.53;;
3253;SDS011;1639;42.804;23.342;2022-12-07T05:01:10;5.50;;;1.93;;
3253;SDS011;1639;42.804;23.342;2022-12-07T05:03:35;5.70;;;2.17;;
3253;SDS011;1639;42.804;23.342;2022-12-07T05:06:01;5.90;;;1.83;;
3253;SDS011;1639;42.804;23.342;2022-12-07T05:08:27;5.20;;;1.60;;
3253;SDS011;1639;42.804;23.342;2022-12-07T05:10:53;9.77;;;4.10;;
3253;SDS011;1639;42.804;23.342;2022-12-07T05:13:18;5.60;;;2.27;;
3253;SDS011;1639;42.804;23.342;2022-12-07T05:15:43;5.60;;;2.37;;
3253;SDS011;1639;42.804;23.342;2022-12-07T05:18:09;5.30;;;1.60;;
3253;SDS011;1639;42.804;23.342;2022-12-07T05:20:38;7.17;;;3.07;;
3253;SDS011;1639;42.804;23.342;2022-12-07T05:23:03;5.30;;;1.93;;
3253;SDS011;1639;42.804;23.342;2022-12-07T05:25:29;5.50;;;1.57;;
3253;SDS011;1639;42.804;23.342;2022-12-07T05:27:55;8.30;;;2.60;;
3253;SDS011;1639;42.804;23.342;2022-12-07T05:30:21;24.53;;;3.87;;
3253;SDS011;1639;42.804;23.342;2022-12-07T05:32:47;6.27;;;2.30;;
3253;SDS011;1639;42.804;23.342;2022-12-07T05:35:12;11.40;;;2.87;;
3253;SDS011;1639;42.804;23.342;2022-12-07T05:37:37;5.30;;;2.10;;
3253;SDS011;1639;42.804;23.342;2022-12-07T05:40:03;6.90;;;3.00;;
3253;SDS011;1639;42.804;23.342;2022-12-07T05:42:30;11.73;;;2.13;;
3253;SDS011;1639;42.804;23.342;2022-12-07T05:44:55;5.50;;;2.03;;
3253;SDS011;1639;42.804;23.342;2022-12-07T05:47:21;7.10;;;1.93;;
3253;SDS011;1639;42.804;23.342;2022-12-07T05:49:46;5.20;;;1.40;;
3253;SDS011;1639;42.804;23.342;2022-12-07T05:52:11;5.30;;;1.63;;
3253;SDS011;1639;42.804;23.342;2022-12-07T05:54:37;5.80;;;2.67;;
3253;SDS011;1639;42.804;23.342;2022-12-07T05:57:02;6.00;;;3.13;;
3253;SDS011;1639;42.804;23.342;2022-12-07T05:59:28;10.53;;;4.40;;
3253;SDS011;1639;42.804;23.342;2022-12-07T06:02:13;7.17;;;2.50;;
3253;SDS011;1639;42.804;23.342;2022-12-07T06:04:41;6.47;;;3.13;;
3253;SDS011;1639;42.804;23.342;2022-12-07T06:07:08;8.70;;;3.00;;
3253;SDS011;1639;42.804;23.342;2022-12-07T06:09:34;8.27;;;3.70;;
3253;SDS011;1639;42.804;23.342;2022-12-07T06:12:00;9.00;;;3.80;;
3253;SDS011;1639;42.804;23.342;2022-12-07T06:14:44;6.37;;;3.20;;
3253;SDS011;1639;42.804;23.342;2022-12-07T06:17:10;7.30;;;3.33;;
3253;SDS011;1639;42.804;23.342;2022-12-07T06:19:37;10.50;;;2.10;;
3253;SDS011;1639;42.804;23.342;2022-12-07T06:22:02;6.90;;;2.47;;
3253;SDS011;1639;42.804;23.342;2022-12-07T06:24:29;13.20;;;3.93;;
3253;SDS011;1639;42.804;23.342;2022-12-07T06:26:55;7.60;;;2.60;;
3253;SDS011;1639;42.804;23.342;2022-12-07T06:29:20;5.97;;;2.63;;
3253;SDS011;1639;42.804;23.342;2022-12-07T06:31:47;6.80;;;2.43;;
3253;SDS011;1639;42.804;23.342;2022-12-07T06:34:14;6.07;;;2.00;;
3253;SDS011;1639;42.804;23.342;2022-12-07T06:36:42;6.30;;;2.60;;
3253;SDS011;1639;42.804;23.342;2022-12-07T06:39:07;6.33;;;2.13;;
3253;SDS011;1639;42.804;23.342;2022-12-07T06:41:34;5.40;;;1.97;;
3253;SDS011;1639;42.804;23.342;2022-12-07T06:44:06;5.27;;;1.50;;
3253;SDS011;1639;42.804;23.342;2022-12-07T06:46:32;6.03;;;2.20;;
3253;SDS011;1639;42.804;23.342;2022-12-07T06:48:57;5.50;;;2.07;;
3253;SDS011;1639;42.804;23.342;2022-12-07T06:51:23;7.20;;;2.80;;
3253;SDS011;1639;42.804;23.342;2022-12-07T06:53:48;12.30;;;2.63;;
3253;SDS011;1639;42.804;23.342;2022-12-07T06:56:14;5.60;;;2.57;;
3253;SDS011;1639;42.804;23.342;2022-12-07T06:58:40;5.30;;;1.63;;
3253;SDS011;1639;42.804;23.342;2022-12-07T07:01:12;8.13;;;2.80;;
3253;SDS011;1639;42.804;23.342;2022-12-07T07:03:38;5.90;;;2.60;;
3253;SDS011;1639;42.804;23.342;2022-12-07T07:06:04;5.50;;;2.20;;
3253;SDS011;1639;42.804;23.342;2022-12-07T07:08:30;7.50;;;2.70;;
3253;SDS011;1639;42.804;23.342;2022-12-07T07:10:56;5.90;;;2.90;;
3253;SDS011;1639;42.804;23.342;2022-12-07T07:13:21;5.60;;;2.40;;
3253;SDS011;1639;42.804;23.342;2022-12-07T07:15:47;5.13;;;1.67;;
3253;SDS011;1639;42.804;23.342;2022-12-07T07:18:12;10.93;;;4.17;;
3253;SDS011;1639;42.804;23.342;2022-12-07T07:20:38;11.93;;;3.30;;
3253;SDS011;1639;42.804;23.342;2022-12-07T07:23:04;5.77;;;2.63;;
3253;SDS011;1639;42.804;23.342;2022-12-07T07:25:30;5.57;;;1.93;;
3253;SDS011;1639;42.804;23.342;2022-12-07T07:27:56;5.27;;;1.77;;
3253;SDS011;1639;42.804;23.342;2022-12-07T07:30:21;10.63;;;3.30;;
3253;SDS011;1639;42.804;23.342;2022-12-07T07:32:47;5.90;;;2.50;;
3253;SDS011;1639;42.804;23.342;2022-12-07T07:35:12;5.70;;;2.07;;
3253;SDS011;1639;42.804;23.342;2022-12-07T07:37:39;8.43;;;4.07;;
3253;SDS011;1639;42.804;23.342;2022-12-07T07:40:04;13.20;;;5.47;;
3253;SDS011;1639;42.804;23.342;2022-12-07T07:42:30;10.20;;;3.83;;
3253;SDS011;1639;42.804;23.342;2022-12-07T07:44:56;24.17;;;4.00;;
3253;SDS011;1639;42.804;23.342;2022-12-07T07:47:21;16.00;;;3.97;;
3253;SDS011;1639;42.804;23.342;2022-12-07T07:49:46;5.70;;;2.10;;
3253;SDS011;1639;42.804;23.342;2022-12-07T07:52:12;14.60;;;4.53;;
3253;SDS011;1639;42.804;23.342;2022-12-07T07:54:38;9.80;;;4.47;;
3253;SDS011;1639;42.804;23.342;2022-12-07T07:57:03;12.17;;;4.13;;
3253;SDS011;1639;42.804;23.342;2022-12-07T07:59:28;6.77;;;3.30;;
3253;SDS011;1639;42.804;23.342;2022-12-07T08:01:54;34.23;;;4.63;;
3253;SDS011;1639;42.804;23.342;2022-12-07T08:04:19;5.50;;;2.00;;
3253;SDS011;1639;42.804;23.342;2022-12-07T08:06:45;7.10;;;3.60;;
3253;SDS011;1639;42.804;23.342;2022-12-07T08:09:10;6.03;;;2.97;;
3253;SDS011;1639;42.804;23.342;2022-12-07T08:11:37;6.67;;;3.93;;
3253;SDS011;1639;42.804;23.342;2022-12-07T08:14:02;6.33;;;2.70;;
3253;SDS011;1639;42.804;23.342;2022-12-07T08:16:28;12.37;;;5.23;;
3253;SDS011;1639;42.804;23.342;2022-12-07T08:18:53;14.03;;;4.10;;
3253;SDS011;1639;42.804;23.342;2022-12-07T08:21:19;6.90;;;3.73;;
3253;SDS011;1639;42.804;23.342;2022-12-07T08:23:44;17.30;;;3.87;;
3253;SDS011;1639;42.804;23.342;2022-12-07T08:26:11;6.30;;;3.60;;
3253;SDS011;1639;42.804;23.342;2022-12-07T08:28:38;7.10;;;3.73;;
3253;SDS011;1639;42.804;23.342;2022-12-07T08:31:05;12.57;;;4.77;;
3253;SDS011;1639;42.804;23.342;2022-12-07T08:33:34;5.93;;;2.90;;
3253;SDS011;1639;42.804;23.342;2022-12-07T08:36:00;11.60;;;2.90;;
3253;SDS011;1639;42.804;23.342;2022-12-07T08:38:26;9.40;;;3.17;;
3253;SDS011;1639;42.804;23.342;2022-12-07T08:40:58;8.20;;;4.00;;
3253;SDS011;1639;42.804;23.342;2022-12-07T08:43:24;7.20;;;3.07;;
3253;SDS011;1639;42.804;23.342;2022-12-07T08:45:51;6.27;;;2.73;;
3253;SDS011;1639;42.804;23.342;2022-12-07T08:48:28;6.97;;;2.73;;
3253;SDS011;1639;42.804;23.342;2022-12-07T08:50:55;11.70;;;5.30;;
3253;SDS011;1639;42.804;23.342;2022-12-07T08:53:21;9.43;;;3.47;;
3253;SDS011;1639;42.804;23.342;2022-12-07T08:55:46;8.60;;;4.17;;
3253;SDS011;1639;42.804;23.342;2022-12-07T08:58:13;6.80;;;3.37;;
3253;SDS011;1639;42.804;23.342;2022-12-07T09:00:38;7.30;;;2.53;;
3253;SDS011;1639;42.804;23.342;2022-12-07T09:03:04;5.27;;;1.80;;
3253;SDS011;1639;42.804;23.342;2022-12-07T09:05:29;11.70;;;3.57;;
3253;SDS011;1639;42.804;23.342;2022-12-07T09:07:55;14.97;;;2.47;;
3253;SDS011;1639;42.804;23.342;2022-12-07T09:10:24;5.70;;;1.53;;
3253;SDS011;1639;42.804;23.342;2022-12-07T09:12:50;8.37;;;3.20;;
3253;SDS011;1639;42.804;23.342;2022-12-07T09:15:16;7.03;;;3.23;;
3253;SDS011;1639;42.804;23.342;2022-12-07T09:17:42;6.57;;;3.00;;
3253;SDS011;1639;42.804;23.342;2022-12-07T09:20:07;7.43;;;2.43;;
3253;SDS011;1639;42.804;23.342;2022-12-07T09:22:33;5.27;;;1.70;;
3253;SDS011;1639;42.804;23.342;2022-12-07T09:24:59;7.50;;;2.93;;
3253;SDS011;1639;42.804;23.342;2022-12-07T09:27:25;13.67;;;2.83;;
3253;SDS011;1639;42.804;23.342;2022-12-07T09:29:51;6.23;;;2.87;;
3253;SDS011;1639;42.804;23.342;2022-12-07T09:32:17;10.43;;;3.50;;
3253;SDS011;1639;42.804;23.342;2022-12-07T09:34:42;9.53;;;3.30;;
3253;SDS011;1639;42.804;23.342;2022-12-07T09:37:08;6.43;;;3.53;;
3253;SDS011;1639;42.804;23.342;2022-12-07T09:39:34;6.10;;;2.80;;
3253;SDS011;1639;42.804;23.342;2022-12-07T09:41:59;7.40;;;3.57;;
3253;SDS011;1639;42.804;23.342;2022-12-07T09:44:29;12.60;;;3.07;;
3253;SDS011;1639;42.804;23.342;2022-12-07T09:46:54;9.73;;;3.30;;
3253;SDS011;1639;42.804;23.342;2022-12-07T09:49:22;5.43;;;2.20;;
3253;SDS011;1639;42.804;23.342;2022-12-07T09:52:03;7.47;;;1.80;;
3253;SDS011;1639;42.804;23.342;2022-12-07T09:54:45;8.10;;;2.37;;
3253;SDS011;1639;42.804;23.342;2022-12-07T09:57:13;8.37;;;1.93;;
3253;SDS011;1639;42.804;23.342;2022-12-07T09:59:39;7.03;;;2.70;;
3253;SDS011;1639;42.804;23.342;2022-12-07T10:02:22;6.17;;;2.20;;
3253;SDS011;1639;42.804;23.342;2022-12-07T10:04:59;8.43;;;4.10;;
3253;SDS011;1639;42.804;23.342;2022-12-07T10:07:25;6.60;;;2.70;;
3253;SDS011;1639;42.804;23.342;2022-12-07T10:09:50;8.63;;;3.40;;
3253;SDS011;1639;42.804;23.342;2022-12-07T10:12:16;6.13;;;2.50;;
3253;SDS011;1639;42.804;23.342;2022-12-07T10:15:03;7.87;;;3.27;;
3253;SDS011;1639;42.804;23.342;2022-12-07T10:17:30;6.37;;;2.90;;
3253;SDS011;1639;42.804;23.342;2022-12-07T10:20:11;5.70;;;2.20;;
3253;SDS011;1639;42.804;23.342;2022-12-07T10:23:22;11.63;;;2.80;;
3253;SDS011;1639;42.804;23.342;2022-12-07T10:25:42;6.90;;;3.50;;
3253;SDS011;1639;42.804;23.342;2022-12-07T10:30:33;8.80;;;2.73;;
3253;SDS011;1639;42.804;23.342;2022-12-07T10:33:38;15.73;;;3.10;;
3253;SDS011;1639;42.804;23.342;2022-12-07T10:36:20;11.10;;;3.90;;
3253;SDS011;1639;42.804;23.342;2022-12-07T10:38:49;8.53;;;3.10;;
3253;SDS011;1639;42.804;23.342;2022-12-07T10:41:23;8.00;;;3.07;;
3253;SDS011;1639;42.804;23.342;2022-12-07T10:43:50;17.73;;;4.30;;
3253;SDS011;1639;42.804;23.342;2022-12-07T10:46:31;6.47;;;3.80;;
3253;SDS011;1639;42.804;23.342;2022-12-07T10:52:18;7.33;;;2.57;;
3253;SDS011;1639;42.804;23.342;2022-12-07T11:00:24;5.83;;;2.60;;
3253;SDS011;1639;42.804;23.342;2022-12-07T11:05:44;7.17;;;3.43;;
3253;SDS011;1639;42.804;23.342;2022-12-07T11:11:09;6.60;;;2.67;;
3253;SDS011;1639;42.804;23.342;2022-12-07T11:13:56;23.47;;;5.47;;
3253;SDS011;1639;42.804;23.342;2022-12-07T11:17:05;12.00;;;2.80;;
3253;SDS011;1639;42.804;23.342;2022-12-07T11:20:00;5.90;;;2.87;;
3253;SDS011;1639;42.804;23.342;2022-12-07T11:25:35;8.40;;;3.27;;
3253;SDS011;1639;42.804;23.342;2022-12-07T11:39:23;5.90;;;3.20;;
3253;SDS011;1639;42.804;23.342;2022-12-07T11:42:14;6.40;;;1.97;;
3253;SDS011;1639;42.804;23.342;2022-12-07T11:44:56;7.07;;;2.70;;
3253;SDS011;1639;42.804;23.342;2022-12-07T11:50:21;14.33;;;3.50;;
3253;SDS011;1639;42.804;23.342;2022-12-07T11:52:55;6.33;;;3.43;;
3253;SDS011;1639;42.804;23.342;2022-12-07T11:55:26;6.00;;;2.50;;
3253;SDS011;1639;42.804;23.342;2022-12-07T11:57:58;7.43;;;2.77;;
3253;SDS011;1639;42.804;23.342;2022-12-07T12:00:29;7.13;;;3.03;;
3253;SDS011;1639;42.804;23.342;2022-12-07T12:02:59;5.00;;;1.70;;
3253;SDS011;1639;42.804;23.342;2022-12-07T12:05:29;6.70;;;3.47;;
3253;SDS011;1639;42.804;23.342;2022-12-07T12:21:49;6.00;;;2.60;;
3253;SDS011;1639;42.804;23.342;2022-12-07T12:24:25;7.83;;;4.53;;
3253;SDS011;1639;42.804;23.342;2022-12-07T12:26:58;11.93;;;3.30;;
3253;SDS011;1639;42.804;23.342;2022-12-07T12:32:20;8.30;;;3.53;;
3253;SDS011;1639;42.804;23.342;2022-12-07T12:35:00;16.63;;;3.70;;
3253;SDS011;1639;42.804;23.342;2022-12-07T12:42:44;11.27;;;4.60;;
3253;SDS011;1639;42.804;23.342;2022-12-07T12:48:00;6.47;;;4.10;;
3253;SDS011;1639;42.804;23.342;2022-12-07T12:50:33;5.90;;;3.13;;
3253;SDS011;1639;42.804;23.342;2022-12-07T12:55:53;7.17;;;4.13;;
3253;SDS011;1639;42.804;23.342;2022-12-07T12:58:39;7.50;;;4.07;;
3253;SDS011;1639;42.804;23.342;2022-12-07T13:07:13;8.80;;;4.03;;
3253;SDS011;1639;42.804;23.342;2022-12-07T13:09:57;6.70;;;3.50;;
3253;SDS011;1639;42.804;23.342;2022-12-07T13:12:22;6.53;;;2.77;;
3253;SDS011;1639;42.804;23.342;2022-12-07T13:20:02;7.10;;;4.40;;
3253;SDS011;1639;42.804;23.342;2022-12-07T13:27:57;6.37;;;3.30;;
3253;SDS011;1639;42.804;23.342;2022-12-07T13:30:27;5.47;;;2.50;;
3253;SDS011;1639;42.804;23.342;2022-12-07T13:32:55;6.10;;;3.60;;
3253;SDS011;1639;42.804;23.342;2022-12-07T13:35:29;9.33;;;2.60;;
3253;SDS011;1639;42.804;23.342;2022-12-07T13:37:59;6.50;;;4.07;;
3253;SDS011;1639;42.804;23.342;2022-12-07T13:40:26;10.60;;;2.60;;
3253;SDS011;1639;42.804;23.342;2022-12-07T13:42:58;5.87;;;3.50;;
3253;SDS011;1639;42.804;23.342;2022-12-07T13:45:27;5.97;;;3.80;;
3253;SDS011;1639;42.804;23.342;2022-12-07T13:48:32;6.00;;;2.60;;
3253;SDS011;1639;42.804;23.342;2022-12-07T13:51:26;9.20;;;3.53;;
3253;SDS011;1639;42.804;23.342;2022-12-07T13:53:54;6.63;;;4.07;;
3253;SDS011;1639;42.804;23.342;2022-12-07T13:56:31;11.30;;;4.13;;
3253;SDS011;1639;42.804;23.342;2022-12-07T13:58:58;8.80;;;3.90;;
3253;SDS011;1639;42.804;23.342;2022-12-07T14:01:24;6.13;;;3.23;;
3253;SDS011;1639;42.804;23.342;2022-12-07T14:03:50;8.03;;;4.80;;
3253;SDS011;1639;42.804;23.342;2022-12-07T14:08:47;8.20;;;3.50;;
3253;SDS011;1639;42.804;23.342;2022-12-07T14:11:14;7.00;;;4.73;;
3253;SDS011;1639;42.804;23.342;2022-12-07T14:16:27;5.37;;;2.50;;
3253;SDS011;1639;42.804;23.342;2022-12-07T14:19:02;7.43;;;3.20;;
3253;SDS011;1639;42.804;23.342;2022-12-07T14:21:50;6.13;;;3.93;;
3253;SDS011;1639;42.804;23.342;2022-12-07T14:24:33;6.20;;;3.57;;
3253;SDS011;1639;42.804;23.342;2022-12-07T14:27:16;7.93;;;4.13;;
3253;SDS011;1639;42.804;23.342;2022-12-07T14:29:43;6.50;;;4.00;;
3253;SDS011;1639;42.804;23.342;2022-12-07T14:32:27;5.80;;;3.30;;
3253;SDS011;1639;42.804;23.342;2022-12-07T14:37:29;6.00;;;3.60;;
3253;SDS011;1639;42.804;23.342;2022-12-07T14:39:55;7.00;;;3.00;;
3253;SDS011;1639;42.804;23.342;2022-12-07T14:42:20;10.73;;;4.30;;
3253;SDS011;1639;42.804;23.342;2022-12-07T14:44:49;9.23;;;5.10;;
3253;SDS011;1639;42.804;23.342;2022-12-07T14:47:14;6.40;;;4.10;;
3253;SDS011;1639;42.804;23.342;2022-12-07T14:49:40;8.60;;;5.27;;
3253;SDS011;1639;42.804;23.342;2022-12-07T14:52:05;6.47;;;3.70;;
3253;SDS011;1639;42.804;23.342;2022-12-07T14:54:38;9.50;;;5.97;;
3253;SDS011;1639;42.804;23.342;2022-12-07T14:57:03;8.93;;;6.43;;
3253;SDS011;1639;42.804;23.342;2022-12-07T14:59:29;16.43;;;5.70;;
3253;SDS011;1639;42.804;23.342;2022-12-07T15:01:54;13.10;;;7.23;;
3253;SDS011;1639;42.804;23.342;2022-12-07T15:04:20;12.20;;;5.00;;
3253;SDS011;1639;42.804;23.342;2022-12-07T15:06:55;11.10;;;6.80;;
3253;SDS011;1639;42.804;23.342;2022-12-07T15:09:24;7.30;;;3.63;;
3253;SDS011;1639;42.804;23.342;2022-12-07T15:11:50;10.93;;;4.93;;
3253;SDS011;1639;42.804;23.342;2022-12-07T15:14:16;14.40;;;5.80;;
3253;SDS011;1639;42.804;23.342;2022-12-07T15:16:42;10.87;;;4.40;;
3253;SDS011;1639;42.804;23.342;2022-12-07T15:19:12;15.73;;;7.30;;
3253;SDS011;1639;42.804;23.342;2022-12-07T15:21:56;9.00;;;5.10;;
3253;SDS011;1639;42.804;23.342;2022-12-07T15:24:21;13.33;;;6.73;;
3253;SDS011;1639;42.804;23.342;2022-12-07T15:26:49;17.37;;;7.60;;
3253;SDS011;1639;42.804;23.342;2022-12-07T15:29:14;10.60;;;6.43;;
3253;SDS011;1639;42.804;23.342;2022-12-07T15:31:41;16.27;;;9.40;;
3253;SDS011;1639;42.804;23.342;2022-12-07T15:34:06;17.10;;;8.53;;
3253;SDS011;1639;42.804;23.342;2022-12-07T15:36:32;14.70;;;7.47;;
3253;SDS011;1639;42.804;23.342;2022-12-07T15:38:58;17.00;;;9.57;;
3253;SDS011;1639;42.804;23.342;2022-12-07T15:41:24;14.17;;;6.70;;
3253;SDS011;1639;42.804;23.342;2022-12-07T15:43:50;29.30;;;8.40;;
3253;SDS011;1639;42.804;23.342;2022-12-07T15:46:38;16.93;;;7.60;;
3253;SDS011;1639;42.804;23.342;2022-12-07T15:49:10;12.43;;;6.90;;
3253;SDS011;1639;42.804;23.342;2022-12-07T15:51:41;15.63;;;7.43;;
3253;SDS011;1639;42.804;23.342;2022-12-07T15:54:09;21.73;;;6.57;;
3253;SDS011;1639;42.804;23.342;2022-12-07T15:56:38;8.77;;;5.50;;
3253;SDS011;1639;42.804;23.342;2022-12-07T15:59:03;9.90;;;6.10;;
3253;SDS011;1639;42.804;23.342;2022-12-07T16:01:28;13.63;;;6.70;;
3253;SDS011;1639;42.804;23.342;2022-12-07T16:03:54;16.87;;;7.73;;
3253;SDS011;1639;42.804;23.342;2022-12-07T16:06:23;13.93;;;7.50;;
3253;SDS011;1639;42.804;23.342;2022-12-07T16:08:48;18.03;;;5.50;;
3253;SDS011;1639;42.804;23.342;2022-12-07T16:11:13;10.70;;;6.50;;
3253;SDS011;1639;42.804;23.342;2022-12-07T16:13:39;9.97;;;5.20;;
3253;SDS011;1639;42.804;23.342;2022-12-07T16:16:06;12.20;;;6.17;;
3253;SDS011;1639;42.804;23.342;2022-12-07T16:18:33;8.73;;;6.17;;
3253;SDS011;1639;42.804;23.342;2022-12-07T16:20:58;9.73;;;4.37;;
3253;SDS011;1639;42.804;23.342;2022-12-07T16:23:24;13.40;;;5.23;;
3253;SDS011;1639;42.804;23.342;2022-12-07T16:25:49;9.30;;;5.30;;
3253;SDS011;1639;42.804;23.342;2022-12-07T16:28:14;11.60;;;3.53;;
3253;SDS011;1639;42.804;23.342;2022-12-07T16:30:40;19.03;;;6.57;;
3253;SDS011;1639;42.804;23.342;2022-12-07T16:33:05;9.03;;;3.10;;
3253;SDS011;1639;42.804;23.342;2022-12-07T16:35:31;17.50;;;5.27;;
3253;SDS011;1639;42.804;23.342;2022-12-07T16:37:56;17.83;;;8.67;;
3253;SDS011;1639;42.804;23.342;2022-12-07T16:40:21;13.50;;;5.10;;
3253;SDS011;1639;42.804;23.342;2022-12-07T16:42:47;9.23;;;7.13;;
3253;SDS011;1639;42.804;23.342;2022-12-07T16:45:12;12.13;;;4.03;;
3253;SDS011;1639;42.804;23.342;2022-12-07T16:47:38;13.13;;;4.47;;
3253;SDS011;1639;42.804;23.342;2022-12-07T16:50:04;11.13;;;3.93;;
3253;SDS011;1639;42.804;23.342;2022-12-07T16:52:30;7.93;;;3.93;;
3253;SDS011;1639;42.804;23.342;2022-12-07T16:54:56;18.67;;;7.17;;
3253;SDS011;1639;42.804;23.342;2022-12-07T16:57:21;34.37;;;7.03;;
3253;SDS011;1639;42.804;23.342;2022-12-07T16:59:46;12.77;;;6.57;;
3253;SDS011;1639;42.804;23.342;2022-12-07T17:02:12;15.23;;;4.57;;
3253;SDS011;1639;42.804;23.342;2022-12-07T17:04:37;9.17;;;5.33;;
3253;SDS011;1639;42.804;23.342;2022-12-07T17:07:04;6.33;;;3.53;;
3253;SDS011;1639;42.804;23.342;2022-12-07T17:09:30;12.37;;;4.17;;
3253;SDS011;1639;42.804;23.342;2022-12-07T17:11:56;10.50;;;4.17;;